KVSF/VSF METAR and TAF weather

Enter ICAO airport designator
Station Type Date Time Source
KVSF METAR 2020/10/29 16:54 UTC NOAA

KVSF 291654Z AUTO 00000KT 9SM -RA BKN003 OVC055 06/04 A2984 RMK AO2 RAB43 SLP111 P0000 T00560044 $


Station Type Date Time Source
KVSF Decoded METAR 2020/10/29 16:54 UTC NOAA

HARTNESS STATE AIRPORT, VT, United States (KVSF) 43-21N 72-31W 175M
Oct 29, 2020 - 12:54 PM EDT / 2020.10.29 1654 UTC
Wind: Calm:0
Visibility: 9 mile(s):0
Sky conditions: overcast
Weather: light rain
Precipitation last hour: A trace
Temperature: 42.1 F (5.6 C)
Dew Point: 39.9 F (4.4 C)
Relative Humidity: 91%
Pressure (altimeter): 29.84 in. Hg (1010 hPa)
ob: KVSF 291654Z AUTO 00000KT 9SM -RA BKN003 OVC055 06/04 A2984 RMK AO2 RAB43 SLP111 P0000 T00560044
cycle: 17

Station Type Date Time Source
KVSF TAF UTC NOAA

Error!

Example: see airport list